Angora, NE

9:37 AM MDT on May 30, 2015 (GMT -0600)
Wayne Rd. | | Change Station
CLOSE
Current Station
Personal Weather Station
Location: Alliance, NE
Elevation: 4091 ft
Nearby Weather Stations

Elev 4091 ft 42.02 °N, 103.05 °W | Updated 13 minutes ago

Mostly Cloudy
Mostly Cloudy
45.9 °F
Feels Like 41 °F
N
10.0
Wind Variable Wind from SSE
Gusts 13.0 mph

Today
High -- | Low -- °F
--% Chance of Precip.
Yesterday
High -- | Low -- °F
Precip. -- in
5:20 AM 8:19 PM
Waxing Gibbous, 91% visible
Pressure 30.28 in
Visibility 10.0 miles
Clouds Few 1000 ft
Windchill 41 °F
Dew Point 45 °F
Humidity 98%
Rainfall 0.00 in
Snow Depth Not available.
UV 5 out of 12
Pollen 7.60 out of 12
Air Quality Not available.
Flu Activity No Activity
METAR KAIA 301453Z AUTO 11007KT 10SM FEW010 09/06 A3029 RMK AO2 SLP254 T00890056 58003

More Conditions Fewer Conditions

Pressure 30.28 in
Visibility 10.0 miles
Clouds Few 1000 ft
Windchill 41 °F
Dew Point 45 °F
Humidity 98%
Rainfall 0.00 in
Snow Depth Not available.
UV 5 out of 12
Pollen 7.60 out of 12
Air Quality Not available.
Flu Activity No Activity
METAR KAIA 301453Z AUTO 11007KT 10SM FEW010 09/06 A3029 RMK AO2 SLP254 T00890056 58003

More Conditions Fewer Conditions

10-Day Weather Forecast

Almanac

Astronomy

May. 30, 2015 Rise Set
Actual Time
Civil Twilight
Nautical Twilight
Astronomical Twilight
Moon
Length of Visible Light
Length of Day
Tomorrow will be .
, % of the Moon is Illuminated

Today's Extremes

State Highs State Lows

Community

WunderPhotos

Upload Photos

1,825,545 photos uploaded!

WunderBlogs® & News

Nearby

Air Quality

  Air Quality AQ Index Pollutant
Not available.

Snow Depth

Station Depth Elevation

Earthquake Activity

City Distance Mag. Time & Date
Minimum magnitude displayed is 2.5.

Coastal Water Temperatures

Place Temperature

Stations

Nearby Weather Stations

Station Location Temp. Windchill Dew Point Humidity Wind Precip. Elev Updated Type